createdAt,value
2022-09-23T00:01:25.591Z,6.96
2022-09-23T00:03:53.891Z,6.92
2022-09-23T00:06:23.747Z,6.91
2022-09-23T00:08:52.133Z,6.86
2022-09-23T00:11:21.910Z,6.86
2022-09-23T00:13:52.427Z,6.87
2022-09-23T00:16:24.677Z,6.85
2022-09-23T00:18:52.748Z,6.81
2022-09-23T00:21:22.465Z,6.81
2022-09-23T00:23:50.735Z,6.86
2022-09-23T00:26:21.409Z,6.85
2022-09-23T00:28:49.505Z,6.86
2022-09-23T00:31:20.687Z,6.87
2022-09-23T00:33:53.974Z,6.93
2022-09-23T00:36:21.933Z,6.93
2022-09-23T00:38:49.933Z,6.88
2022-09-23T00:41:17.958Z,6.87
2022-09-23T00:43:48.487Z,6.85
2022-09-23T00:46:20.296Z,6.86
2022-09-23T00:48:53.151Z,6.82
2022-09-23T00:51:25.667Z,6.87
2022-09-23T00:53:53.983Z,6.88
2022-09-23T00:56:24.160Z,6.83
2022-09-23T00:58:52.733Z,6.87
2022-09-23T01:01:21.409Z,6.88
2022-09-23T01:03:52.260Z,6.95
2022-09-23T01:06:20.423Z,7.17
2022-09-23T01:08:48.852Z,7.00
2022-09-23T01:11:37.103Z,6.93
2022-09-23T01:14:17.102Z,6.84
2022-09-23T01:16:54.472Z,6.77
2022-09-23T01:19:43.479Z,6.78
2022-09-23T01:22:19.077Z,6.72
2022-09-23T01:24:56.194Z,6.70
2022-09-23T01:27:43.146Z,6.63
2022-09-23T01:30:19.898Z,6.59
2022-09-23T01:33:04.527Z,6.57
2022-09-23T01:35:44.586Z,6.59
2022-09-23T01:38:21.948Z,6.51
2022-09-23T01:40:59.860Z,6.41
2022-09-23T01:43:38.221Z,6.35
2022-09-23T01:46:12.373Z,6.32
2022-09-23T01:48:47.591Z,6.27
2022-09-23T01:51:19.990Z,6.19
2022-09-23T01:53:52.111Z,6.11
2022-09-23T01:56:24.363Z,6.05
2022-09-23T01:58:58.159Z,6.00
2022-09-23T02:01:34.082Z,5.96
2022-09-23T02:04:09.093Z,5.91
2022-09-23T02:06:43.214Z,5.87
2022-09-23T02:09:15.636Z,5.83
2022-09-23T02:11:48.033Z,5.77
2022-09-23T02:14:21.140Z,5.81
2022-09-23T02:16:51.981Z,5.80
2022-09-23T02:19:25.113Z,5.81
2022-09-23T02:21:58.812Z,5.80
2022-09-23T02:24:31.476Z,5.78
2022-09-23T02:27:13.157Z,5.77
2022-09-23T02:29:51.142Z,5.72
2022-09-23T02:32:23.974Z,5.64
2022-09-23T02:35:00.765Z,5.59
2022-09-23T02:37:37.459Z,5.57
2022-09-23T02:40:16.950Z,5.56
2022-09-23T02:42:54.385Z,5.54
2022-09-23T02:45:22.575Z,5.55
2022-09-23T02:47:56.092Z,5.54
2022-09-23T02:50:25.992Z,5.52
2022-09-23T02:52:53.708Z,5.47
2022-09-23T02:55:24.321Z,5.42
2022-09-23T02:57:53.375Z,5.38
2022-09-23T03:00:21.562Z,5.37
2022-09-23T03:03:05.218Z,5.35
2022-09-23T03:05:43.038Z,5.32
2022-09-23T03:08:39.350Z,5.29
2022-09-23T03:11:10.490Z,5.26
2022-09-23T03:14:03.921Z,5.22
2022-09-23T03:16:44.386Z,5.24
2022-09-23T03:19:25.067Z,5.22
2022-09-23T03:22:01.997Z,5.21
2022-09-23T03:24:34.010Z,5.22
2022-09-23T03:27:05.698Z,5.20
2022-09-23T03:29:37.293Z,5.20
2022-09-23T03:32:08.179Z,5.16
2022-09-23T03:34:39.233Z,5.12
2022-09-23T03:37:15.729Z,5.10
2022-09-23T03:39:48.530Z,5.10
2022-09-23T03:42:21.608Z,5.09
2022-09-23T03:44:54.046Z,5.07
2022-09-23T03:47:22.562Z,5.03
2022-09-23T03:49:51.908Z,5.03
2022-09-23T03:52:23.497Z,5.04
2022-09-23T03:54:52.069Z,5.03
2022-09-23T03:57:21.951Z,5.00
2022-09-23T03:59:50.441Z,5.02
2022-09-23T04:02:19.882Z,5.00
2022-09-23T04:04:48.619Z,4.96
2022-09-23T04:07:16.682Z,4.93
2022-09-23T04:09:46.018Z,4.91
2022-09-23T04:12:16.719Z,4.89
2022-09-23T04:14:45.699Z,4.91
2022-09-23T04:17:14.173Z,4.95
2022-09-23T04:19:42.291Z,5.02
2022-09-23T04:22:11.225Z,5.12
2022-09-23T04:24:39.190Z,5.14
2022-09-23T04:27:08.520Z,5.17
2022-09-23T04:29:36.726Z,5.24
2022-09-23T04:32:04.889Z,5.24
2022-09-23T04:34:32.870Z,5.27
2022-09-23T04:37:00.842Z,5.28
2022-09-23T04:39:28.754Z,5.27
2022-09-23T04:41:56.712Z,5.21
2022-09-23T04:44:28.030Z,5.14
2022-09-23T04:46:56.088Z,5.08
2022-09-23T04:49:24.475Z,4.99
2022-09-23T04:51:52.408Z,4.94
2022-09-23T04:54:20.577Z,4.91
2022-09-23T04:56:48.470Z,4.92
2022-09-23T04:59:16.431Z,4.89
2022-09-23T05:01:45.712Z,4.92
2022-09-23T05:04:14.418Z,4.93
2022-09-23T05:06:43.891Z,4.94
2022-09-23T05:09:15.954Z,4.93
2022-09-23T05:11:44.966Z,4.96
2022-09-23T05:14:13.026Z,5.01
2022-09-23T05:16:41.254Z,4.98
2022-09-23T05:19:11.658Z,4.98
2022-09-23T05:21:39.549Z,4.96
2022-09-23T05:24:07.895Z,5.01
2022-09-23T05:26:35.834Z,5.03
2022-09-23T05:29:03.838Z,5.06
2022-09-23T05:31:31.888Z,5.09
2022-09-23T05:34:01.170Z,5.15
2022-09-23T05:36:37.567Z,5.25
2022-09-23T05:39:07.608Z,5.35
2022-09-23T05:41:35.938Z,5.41
2022-09-23T05:44:04.138Z,5.51
2022-09-23T05:46:33.064Z,5.65
2022-09-23T05:49:03.344Z,5.79
2022-09-23T05:51:35.949Z,6.01
2022-09-23T05:54:05.450Z,6.18
2022-09-23T05:56:34.959Z,6.30
2022-09-23T05:59:04.430Z,6.40
2022-09-23T06:01:35.195Z,6.54
2022-09-23T06:04:05.607Z,6.68
2022-09-23T06:06:37.059Z,6.75
2022-09-23T06:09:05.447Z,6.93
2022-09-23T06:11:35.277Z,7.04
2022-09-23T06:14:03.346Z,7.19
2022-09-23T06:16:34.914Z,7.33
2022-09-23T06:19:06.252Z,7.44
2022-09-23T06:21:38.274Z,7.64
2022-09-23T06:24:07.859Z,7.70
2022-09-23T06:26:37.438Z,7.92
2022-09-23T06:29:09.890Z,7.85
2022-09-23T06:31:38.268Z,8.05
2022-09-23T06:34:11.897Z,8.09
2022-09-23T06:36:45.110Z,8.08
2022-09-23T06:39:15.211Z,8.27
2022-09-23T06:41:43.709Z,8.37
2022-09-23T06:44:14.589Z,8.37
2022-09-23T06:46:43.087Z,8.45
2022-09-23T06:49:13.272Z,8.53
2022-09-23T06:51:42.729Z,8.67
2022-09-23T06:54:10.992Z,8.77
2022-09-23T06:56:39.920Z,8.89
2022-09-23T06:59:08.866Z,8.88
2022-09-23T07:01:36.921Z,8.88
2022-09-23T07:04:05.098Z,8.94
2022-09-23T07:06:33.164Z,9.17
2022-09-23T07:09:03.201Z,9.35
2022-09-23T07:11:31.275Z,9.41
2022-09-23T07:13:59.506Z,9.59
2022-09-23T07:16:27.566Z,9.82
2022-09-23T07:18:55.985Z,9.77
2022-09-23T07:21:24.161Z,9.76
2022-09-23T07:23:52.346Z,9.95
2022-09-23T07:26:22.735Z,10.06
2022-09-23T07:28:55.252Z,10.29
2022-09-23T07:31:36.447Z,10.52
2022-09-23T07:34:07.619Z,10.63
2022-09-23T07:36:37.288Z,10.37
2022-09-23T07:39:05.333Z,10.67
2022-09-23T07:41:35.555Z,10.82
2022-09-23T07:44:04.251Z,10.64
2022-09-23T07:46:34.070Z,10.68
2022-09-23T07:49:02.954Z,10.69
2022-09-23T07:51:36.058Z,10.67
2022-09-23T07:54:07.665Z,11.10
2022-09-23T07:56:38.167Z,11.11
2022-09-23T07:59:08.570Z,11.12
2022-09-23T08:01:38.717Z,11.32
2022-09-23T08:04:11.545Z,11.37
2022-09-23T08:06:42.342Z,11.48
2022-09-23T08:09:11.529Z,11.27
2022-09-23T08:11:41.934Z,11.42
2022-09-23T08:14:11.131Z,11.32
2022-09-23T08:16:39.774Z,11.31
2022-09-23T08:19:08.137Z,11.42
2022-09-23T08:21:37.490Z,11.57
2022-09-23T08:24:05.710Z,11.30
2022-09-23T08:26:34.369Z,11.49
2022-09-23T08:29:03.883Z,11.76
2022-09-23T08:31:32.138Z,11.95
2022-09-23T08:34:00.652Z,11.67
2022-09-23T08:36:28.677Z,11.74
2022-09-23T08:38:57.225Z,11.85
2022-09-23T08:41:37.071Z,12.16
2022-09-23T08:44:11.855Z,12.19
2022-09-23T08:46:47.192Z,12.30
2022-09-23T08:49:20.873Z,12.24
2022-09-23T08:51:50.672Z,12.45
2022-09-23T08:54:18.707Z,12.55
2022-09-23T08:56:52.127Z,12.61
2022-09-23T08:59:29.117Z,12.94
2022-09-23T09:02:01.162Z,12.90
2022-09-23T09:04:40.047Z,12.94
2022-09-23T09:10:11.082Z,13.31
2022-09-23T09:12:43.378Z,13.37
2022-09-23T09:15:17.313Z,13.58
2022-09-23T09:17:54.299Z,13.58
2022-09-23T09:20:25.017Z,13.46
2022-09-23T09:22:59.759Z,13.65
2022-09-23T09:25:45.067Z,13.69
2022-09-23T09:28:22.991Z,14.00
2022-09-23T09:30:57.415Z,13.76
2022-09-23T09:33:32.322Z,13.86
2022-09-23T09:36:20.387Z,13.90
2022-09-23T09:38:48.457Z,13.88
2022-09-23T09:41:21.325Z,14.15
2022-09-23T09:43:53.352Z,14.31
2022-09-23T09:46:34.530Z,14.18
2022-09-23T09:49:08.377Z,14.37
2022-09-23T09:51:39.592Z,14.74
2022-09-23T09:54:22.006Z,14.72
2022-09-23T09:56:51.701Z,14.92
2022-09-23T09:59:23.396Z,15.08
2022-09-23T10:02:13.843Z,15.04
2022-09-23T10:04:42.111Z,15.09
2022-09-23T10:07:14.332Z,15.17
2022-09-23T10:09:50.591Z,15.49
2022-09-23T10:12:20.037Z,15.59
2022-09-23T10:14:51.552Z,15.60
2022-09-23T10:17:24.074Z,15.55
2022-09-23T10:20:00.717Z,15.36
2022-09-23T10:22:32.475Z,15.66
2022-09-23T10:25:05.679Z,15.82
2022-09-23T10:27:35.749Z,16.02
2022-09-23T10:30:06.373Z,16.40
2022-09-23T10:32:40.518Z,16.60
2022-09-23T10:35:16.404Z,16.63
2022-09-23T10:37:48.276Z,17.25
2022-09-23T10:40:37.977Z,17.86
2022-09-23T10:43:43.180Z,18.33
2022-09-23T10:46:37.763Z,18.57
2022-09-23T10:49:30.989Z,18.31
2022-09-23T10:52:14.069Z,18.30
2022-09-23T10:54:53.602Z,18.46
2022-09-23T10:57:41.544Z,19.68
2022-09-23T11:00:23.107Z,19.47
2022-09-23T11:03:18.618Z,19.19
2022-09-23T11:06:00.726Z,19.86
2022-09-23T11:08:43.765Z,19.76
2022-09-23T11:11:24.481Z,20.19
2022-09-23T11:14:07.926Z,20.67
2022-09-23T11:16:47.386Z,20.74
2022-09-23T11:19:36.665Z,20.47
2022-09-23T11:22:16.807Z,20.24
2022-09-23T11:25:16.684Z,20.89
2022-09-23T11:28:02.233Z,20.32
2022-09-23T11:30:44.165Z,20.82
2022-09-23T11:33:25.364Z,20.72
2022-09-23T11:35:58.539Z,21.45
2022-09-23T11:38:32.670Z,21.76
2022-09-23T11:41:03.858Z,20.93
2022-09-23T11:43:39.243Z,21.56
2022-09-23T11:46:15.837Z,20.89
2022-09-23T11:48:49.271Z,21.14
2022-09-23T11:51:23.154Z,21.61
2022-09-23T11:53:56.330Z,21.98
2022-09-23T11:56:35.492Z,21.09
2022-09-23T11:59:11.321Z,21.83
2022-09-23T12:01:46.555Z,21.88
2022-09-23T12:04:25.586Z,21.70
2022-09-23T12:07:02.045Z,20.99
2022-09-23T12:09:57.758Z,21.45
2022-09-23T12:12:36.982Z,21.14
2022-09-23T12:15:14.178Z,20.67
2022-09-23T12:18:23.254Z,20.73
2022-09-23T12:21:08.167Z,21.13
2022-09-23T12:23:52.143Z,21.20
2022-09-23T12:26:24.271Z,21.53
2022-09-23T12:28:56.142Z,21.15
2022-09-23T12:31:30.573Z,20.77
2022-09-23T12:34:01.116Z,20.83
2022-09-23T12:36:34.708Z,21.31
2022-09-23T12:39:06.418Z,21.57
2022-09-23T12:41:39.378Z,22.07
2022-09-23T12:44:31.460Z,21.34
2022-09-23T12:47:39.382Z,21.67
2022-09-23T12:50:47.070Z,21.78
2022-09-23T12:53:51.756Z,22.24
2022-09-23T12:56:21.645Z,22.24
2022-09-23T12:59:01.759Z,22.39
2022-09-23T13:01:37.285Z,22.33
2022-09-23T13:04:23.586Z,22.59
2022-09-23T13:06:58.656Z,23.34
2022-09-23T13:09:30.112Z,23.61
2022-09-23T13:12:01.079Z,23.95
2022-09-23T13:14:33.554Z,23.56
2022-09-23T13:17:01.841Z,23.40
2022-09-23T13:19:46.892Z,23.17
2022-09-23T13:22:14.951Z,22.98
2022-09-23T13:24:47.960Z,21.77
2022-09-23T13:27:21.120Z,21.20
2022-09-23T13:29:57.467Z,21.33
2022-09-23T13:32:31.617Z,21.38
2022-09-23T13:35:02.470Z,21.48
2022-09-23T13:37:39.978Z,21.39
2022-09-23T13:40:18.875Z,21.98
2022-09-23T13:42:51.717Z,22.08
2022-09-23T13:45:24.700Z,22.08
2022-09-23T13:47:55.135Z,21.72
2022-09-23T13:50:24.718Z,21.99
2022-09-23T13:52:53.383Z,22.85
2022-09-23T13:55:26.354Z,22.90
2022-09-23T13:58:03.150Z,23.14
2022-09-23T14:00:38.393Z,22.85
2022-09-23T14:03:24.429Z,21.89
2022-09-23T14:05:53.830Z,21.60
2022-09-23T14:08:22.270Z,21.60
2022-09-23T14:10:50.647Z,22.07
2022-09-23T14:13:25.897Z,22.37
2022-09-23T14:15:59.080Z,23.00
2022-09-23T14:18:34.756Z,22.82
2022-09-23T14:21:03.672Z,23.60
2022-09-23T14:23:32.333Z,23.69
2022-09-23T14:26:00.801Z,23.09
2022-09-23T14:28:29.279Z,21.76
2022-09-23T14:30:59.342Z,21.50
2022-09-23T14:33:31.651Z,21.86
2022-09-23T14:36:07.613Z,21.62
2022-09-23T14:38:50.987Z,21.05
2022-09-23T14:41:25.105Z,20.80
2022-09-23T14:43:57.123Z,20.55
2022-09-23T14:46:28.386Z,20.34
2022-09-23T14:49:00.615Z,20.21
2022-09-23T14:51:36.715Z,20.30
2022-09-23T14:54:41.282Z,20.12
2022-09-23T14:57:26.481Z,20.08
2022-09-23T14:59:56.944Z,19.94
2022-09-23T15:02:37.685Z,19.79
2022-09-23T15:05:24.560Z,19.59
2022-09-23T15:07:54.568Z,19.48
2022-09-23T15:10:27.622Z,19.46
2022-09-23T15:13:03.217Z,19.37
2022-09-23T15:15:31.483Z,19.43
2022-09-23T15:18:07.063Z,19.33
2022-09-23T15:20:36.375Z,19.36
2022-09-23T15:23:04.469Z,19.41
2022-09-23T15:25:35.457Z,19.30
2022-09-23T15:28:17.763Z,19.32
2022-09-23T15:30:45.864Z,19.27
2022-09-23T15:33:16.359Z,19.10
2022-09-23T15:35:47.716Z,18.91
2022-09-23T15:38:17.429Z,18.92
2022-09-23T15:40:45.755Z,18.86
2022-09-23T15:43:20.908Z,18.79
2022-09-23T15:45:52.766Z,18.70
2022-09-23T15:48:25.950Z,18.55
2022-09-23T15:50:55.565Z,18.42
2022-09-23T15:53:26.017Z,18.41
2022-09-23T15:55:54.089Z,18.27
2022-09-23T15:58:23.488Z,18.25
2022-09-23T16:00:56.365Z,18.30
2022-09-23T16:03:29.002Z,18.27
2022-09-23T16:05:59.956Z,18.19
2022-09-23T16:08:28.331Z,18.12
2022-09-23T16:10:57.151Z,18.03
2022-09-23T16:13:25.111Z,17.91
2022-09-23T16:15:53.050Z,17.86
2022-09-23T16:18:20.965Z,17.78
2022-09-23T16:20:51.184Z,17.71
2022-09-23T16:23:34.243Z,17.56
2022-09-23T16:26:05.907Z,17.42
2022-09-23T16:28:34.508Z,17.31
2022-09-23T16:31:02.973Z,17.17
2022-09-23T16:33:30.977Z,17.06
2022-09-23T16:36:01.727Z,16.94
2022-09-23T16:38:30.091Z,16.85
2022-09-23T16:41:00.598Z,16.73
2022-09-23T16:43:39.226Z,16.61
2022-09-23T16:46:07.997Z,16.51
2022-09-23T16:48:40.479Z,16.39
2022-09-23T16:51:16.275Z,16.26
2022-09-23T16:53:44.224Z,16.13
2022-09-23T16:56:13.040Z,16.03
2022-09-23T16:58:41.831Z,15.88
2022-09-23T17:01:33.109Z,15.73
2022-09-23T17:04:01.712Z,15.62
2022-09-23T17:06:31.255Z,15.58
2022-09-23T17:08:59.079Z,15.51
2022-09-23T17:11:32.142Z,15.39
2022-09-23T17:14:02.109Z,15.29
2022-09-23T17:16:32.016Z,15.16
2022-09-23T17:19:02.490Z,15.08
2022-09-23T17:21:31.956Z,14.94
2022-09-23T17:24:00.049Z,14.82
2022-09-23T17:26:29.034Z,14.70
2022-09-23T17:28:58.723Z,14.59
2022-09-23T17:31:27.916Z,14.53
2022-09-23T17:33:56.147Z,14.48
2022-09-23T17:36:24.175Z,14.41
2022-09-23T17:38:54.250Z,14.38
2022-09-23T17:41:22.340Z,14.29
2022-09-23T17:43:55.249Z,14.28
2022-09-23T17:46:23.807Z,14.22
2022-09-23T17:48:52.867Z,14.16
2022-09-23T17:51:21.602Z,14.07
2022-09-23T17:53:50.800Z,14.00
2022-09-23T17:56:21.718Z,13.97
2022-09-23T17:58:51.065Z,13.92
2022-09-23T18:01:21.683Z,13.87
2022-09-23T18:03:53.855Z,13.87
2022-09-23T18:06:23.792Z,13.91
2022-09-23T18:08:52.852Z,13.85
2022-09-23T18:11:24.153Z,13.73
2022-09-23T18:13:54.089Z,13.62
2022-09-23T18:16:24.254Z,13.59
2022-09-23T18:18:52.921Z,13.57
2022-09-23T18:21:21.474Z,13.61
2022-09-23T18:23:50.328Z,13.55
2022-09-23T18:26:20.067Z,13.51
2022-09-23T18:28:49.718Z,13.46
2022-09-23T18:31:17.705Z,13.37
2022-09-23T18:33:50.321Z,13.28
2022-09-23T18:36:18.270Z,13.21
2022-09-23T18:38:46.983Z,13.22
2022-09-23T18:41:15.299Z,13.22
2022-09-23T18:43:48.130Z,13.22
2022-09-23T18:46:20.345Z,13.11
2022-09-23T18:49:06.213Z,13.03
2022-09-23T18:51:36.433Z,12.96
2022-09-23T18:54:05.837Z,12.95
2022-09-23T18:56:39.731Z,12.91
2022-09-23T18:59:09.619Z,12.85
2022-09-23T19:01:38.933Z,12.86
2022-09-23T19:04:07.626Z,12.82
2022-09-23T19:06:37.343Z,12.91
2022-09-23T19:09:06.367Z,12.85
2022-09-23T19:11:36.180Z,12.79
2022-09-23T19:14:06.592Z,12.72
2022-09-23T19:16:35.115Z,12.65
2022-09-23T19:19:05.846Z,12.64
2022-09-23T19:21:33.938Z,12.55
2022-09-23T19:24:04.306Z,12.52
2022-09-23T19:26:33.592Z,12.54
2022-09-23T19:29:02.498Z,12.54
2022-09-23T19:31:33.318Z,12.49
2022-09-23T19:34:02.728Z,12.44
2022-09-23T19:36:34.568Z,12.41
2022-09-23T19:39:04.646Z,12.44
2022-09-23T19:41:35.286Z,12.43
2022-09-23T19:44:07.146Z,12.38
2022-09-23T19:46:37.618Z,12.38
2022-09-23T19:49:07.529Z,12.37
2022-09-23T19:51:36.630Z,12.33
2022-09-23T19:54:07.112Z,12.30
2022-09-23T19:56:36.153Z,12.32
2022-09-23T19:59:07.158Z,12.25
2022-09-23T20:01:35.188Z,12.16
2022-09-23T20:04:03.520Z,12.07
2022-09-23T20:06:32.503Z,12.00
2022-09-23T20:09:02.596Z,11.99
2022-09-23T20:11:31.386Z,11.93
2022-09-23T20:14:03.187Z,11.91
2022-09-23T20:16:33.112Z,11.87
2022-09-23T20:19:02.816Z,11.80
2022-09-23T20:21:31.288Z,11.77
2022-09-23T20:23:59.251Z,11.83
2022-09-23T20:26:46.397Z,11.80
2022-09-23T20:29:14.545Z,11.76
2022-09-23T20:31:42.721Z,11.69
2022-09-23T20:34:11.264Z,11.59
2022-09-23T20:36:41.586Z,11.56
2022-09-23T20:39:10.608Z,11.52
2022-09-23T20:41:40.424Z,11.45
2022-09-23T20:44:12.174Z,11.44
2022-09-23T20:46:45.286Z,11.41
2022-09-23T20:49:16.185Z,11.34
2022-09-23T20:51:44.288Z,11.28
2022-09-23T20:54:12.978Z,11.22
2022-09-23T20:56:42.305Z,11.13
2022-09-23T20:59:10.460Z,11.06
2022-09-23T21:01:38.431Z,11.01
2022-09-23T21:04:08.878Z,10.97
2022-09-23T21:06:39.192Z,10.94
2022-09-23T21:09:08.009Z,10.93
2022-09-23T21:11:36.033Z,10.97
2022-09-23T21:14:05.354Z,10.95
2022-09-23T21:16:33.396Z,10.95
2022-09-23T21:19:02.885Z,10.91
2022-09-23T21:21:31.109Z,10.91
2022-09-23T21:24:17.339Z,10.91
2022-09-23T21:26:50.182Z,10.87
2022-09-23T21:29:19.458Z,10.89
2022-09-23T21:31:49.381Z,10.97
2022-09-23T21:34:17.651Z,11.02
2022-09-23T21:36:46.131Z,11.04
2022-09-23T21:39:14.465Z,11.10
2022-09-23T21:41:42.512Z,11.10
2022-09-23T21:44:11.892Z,11.19
2022-09-23T21:46:41.264Z,11.19
2022-09-23T21:49:09.409Z,11.16
2022-09-23T21:51:40.982Z,11.09
2022-09-23T21:54:13.271Z,11.07
2022-09-23T21:56:41.262Z,11.02
2022-09-23T21:59:09.306Z,11.07
2022-09-23T22:01:39.039Z,11.10
2022-09-23T22:04:15.340Z,11.09
2022-09-23T22:06:44.235Z,11.07
2022-09-23T22:09:14.416Z,11.06
2022-09-23T22:12:00.360Z,11.03
2022-09-23T22:14:29.496Z,11.00
2022-09-23T22:16:59.978Z,10.98
2022-09-23T22:19:33.083Z,10.96
2022-09-23T22:22:01.540Z,10.96
2022-09-23T22:24:29.561Z,10.94
2022-09-23T22:26:57.469Z,10.93
2022-09-23T22:29:43.153Z,11.01
2022-09-23T22:32:30.107Z,11.03
2022-09-23T22:34:59.413Z,11.04
2022-09-23T22:37:30.190Z,11.03
2022-09-23T22:39:58.287Z,10.97
2022-09-23T22:42:27.925Z,10.97
2022-09-23T22:44:56.317Z,10.96
2022-09-23T22:47:25.003Z,10.97
2022-09-23T22:49:54.466Z,10.91
2022-09-23T22:52:25.089Z,10.87
2022-09-23T22:54:53.339Z,10.84
2022-09-23T22:57:21.246Z,10.77
2022-09-23T22:59:49.196Z,10.77
2022-09-23T23:02:17.768Z,10.74
2022-09-23T23:04:46.049Z,10.70
2022-09-23T23:07:14.617Z,10.66
2022-09-23T23:09:44.054Z,10.68
2022-09-23T23:12:12.004Z,10.69
2022-09-23T23:14:40.626Z,10.68
2022-09-23T23:17:08.571Z,10.76
2022-09-23T23:19:37.223Z,10.79
2022-09-23T23:22:05.676Z,10.88
2022-09-23T23:24:33.703Z,10.88
2022-09-23T23:27:02.998Z,10.88
2022-09-23T23:29:31.030Z,10.82
2022-09-23T23:31:58.982Z,10.77
2022-09-23T23:34:27.774Z,10.77
2022-09-23T23:36:55.705Z,10.75
2022-09-23T23:39:25.202Z,10.72
2022-09-23T23:41:55.047Z,10.75
2022-09-23T23:44:25.595Z,10.81
2022-09-23T23:46:54.124Z,10.79
2022-09-23T23:49:22.636Z,10.76
2022-09-23T23:51:50.784Z,10.75
2022-09-23T23:54:18.833Z,10.74
2022-09-23T23:56:46.834Z,10.70
2022-09-23T23:59:14.792Z,10.69
